Time;durP1;ratioP1;P1;durP2;ratioP2;P2;SDS_P1;SDS_P2;PMS_P1;PMS_P2;Temp;Humidity;BMP_temperature;BMP_pressure;BME280_temperature;BME280_humidity;BME280_pressure;Samples;Min_cycle;Max_cycle;Signal;HPM_P1;HPM_P2
2022/11/29 00:00:44;;;;;;;104.25;33.22;;;9.70;99.90;;;;;;5075327;28;20035;-67
2022/11/29 00:03:09;;;;;;;107.50;33.45;;;9.70;99.90;;;;;;5077001;28;20039;-67
2022/11/29 00:05:35;;;;;;;103.50;34.15;;;9.60;99.90;;;;;;5076906;28;20432;-67
2022/11/29 00:08:01;;;;;;;108.82;29.20;;;9.60;99.90;;;;;;5076324;28;20483;-67
2022/11/29 00:10:27;;;;;;;109.60;33.97;;;9.60;99.90;;;;;;5076295;28;20020;-67
2022/11/29 00:12:52;;;;;;;112.32;33.17;;;9.50;99.90;;;;;;5077082;28;20111;-68
2022/11/29 00:15:18;;;;;;;113.57;33.50;;;9.50;99.90;;;;;;5076712;28;20025;-67
2022/11/29 00:17:43;;;;;;;117.95;34.55;;;9.40;99.90;;;;;;5077182;28;20028;-69
2022/11/29 00:20:10;;;;;;;121.70;33.25;;;9.40;99.90;;;;;;5076972;28;20028;-70
2022/11/29 00:22:36;;;;;;;129.73;32.60;;;9.30;99.90;;;;;;5076780;28;20826;-67
2022/11/29 00:25:03;;;;;;;120.97;33.70;;;9.30;99.90;;;;;;5074714;28;20055;-67
2022/11/29 00:27:28;;;;;;;157.93;34.53;;;9.30;99.90;;;;;;5077094;28;20074;-67
2022/11/29 00:29:54;;;;;;;273.67;36.38;;;9.30;99.90;;;;;;5076566;28;20088;-69
2022/11/29 00:32:19;;;;;;;262.95;41.50;;;9.30;99.90;;;;;;5076334;28;20032;-69
2022/11/29 00:34:45;;;;;;;283.95;42.65;;;9.30;99.90;;;;;;5076999;28;20052;-69
2022/11/29 00:37:11;;;;;;;258.30;38.38;;;9.30;99.90;;;;;;5076828;28;20051;-68
2022/11/29 00:39:36;;;;;;;389.73;45.80;;;9.30;99.90;;;;;;5076315;28;20368;-67
2022/11/29 00:42:02;;;;;;;216.23;32.05;;;9.30;99.90;;;;;;5057091;28;20025;-67
2022/11/29 00:44:27;;;;;;;369.42;42.25;;;9.30;99.90;;;;;;5056649;28;20372;-67
2022/11/29 00:46:53;;;;;;;216.80;33.90;;;9.20;99.90;;;;;;5056275;28;20032;-68
2022/11/29 00:49:18;;;;;;;268.23;36.78;;;9.20;99.90;;;;;;5056436;28;20029;-66
2022/11/29 00:51:45;;;;;;;333.88;42.80;;;9.20;99.90;;;;;;5058926;28;20341;-66
2022/11/29 00:54:11;;;;;;;183.57;31.13;;;9.10;99.90;;;;;;5074827;28;20036;-69
2022/11/29 00:56:36;;;;;;;260.55;34.80;;;9.10;99.90;;;;;;5076015;28;20407;-69
2022/11/29 00:59:02;;;;;;;185.85;29.10;;;9.10;99.90;;;;;;5065744;28;20020;-68
2022/11/29 01:01:27;;;;;;;120.07;25.40;;;9.00;99.90;;;;;;5059812;28;20032;-67
2022/11/29 01:03:53;;;;;;;121.13;25.13;;;9.00;99.90;;;;;;5076069;28;20043;-67
2022/11/29 01:06:19;;;;;;;170.70;28.33;;;9.00;99.90;;;;;;5076123;28;20024;-67
2022/11/29 01:08:45;;;;;;;218.05;30.08;;;9.00;99.90;;;;;;5072740;28;20101;-66
2022/11/29 01:11:14;;;;;;;198.10;29.38;;;9.00;99.90;;;;;;5075713;28;20039;-66
2022/11/29 01:13:40;;;;;;;125.70;27.58;;;9.00;99.90;;;;;;5070943;28;20021;-67
2022/11/29 01:16:06;;;;;;;131.82;26.25;;;9.00;99.90;;;;;;5073670;28;20020;-69
2022/11/29 01:18:33;;;;;;;157.48;27.88;;;9.00;99.90;;;;;;5076641;28;20024;-67
2022/11/29 01:21:01;;;;;;;135.30;26.80;;;9.00;99.90;;;;;;5075446;28;20062;-69
2022/11/29 01:23:28;;;;;;;106.68;24.42;;;9.00;99.90;;;;;;5076037;28;20048;-69
2022/11/29 01:25:59;;;;;;;117.72;28.67;;;9.00;99.90;;;;;;5075289;28;20106;-70
2022/11/29 01:28:25;;;;;;;84.32;22.45;;;9.00;99.90;;;;;;5075781;28;20036;-68
2022/11/29 01:30:50;;;;;;;151.57;26.55;;;9.00;99.90;;;;;;5075130;28;20017;-69
2022/11/29 01:33:16;;;;;;;165.25;28.50;;;9.00;99.90;;;;;;5055935;28;20469;-67
2022/11/29 01:35:49;;;;;;;147.65;25.77;;;8.90;99.90;;;;;;5055831;28;20083;-69
2022/11/29 01:38:17;;;;;;;137.13;26.40;;;9.00;99.90;;;;;;5074325;28;20074;-69
2022/11/29 01:40:43;;;;;;;128.40;25.73;;;9.00;99.90;;;;;;5075047;28;20032;-69
2022/11/29 01:43:17;;;;;;;112.65;24.77;;;9.00;99.90;;;;;;5074545;28;20032;-67
2022/11/29 01:45:43;;;;;;;140.20;24.73;;;9.00;99.90;;;;;;5075026;28;20048;-68
2022/11/29 01:48:11;;;;;;;154.70;26.25;;;9.10;99.90;;;;;;5074083;28;20066;-69
2022/11/29 01:50:39;;;;;;;156.98;27.67;;;9.10;99.90;;;;;;5071161;28;20043;-67
2022/11/29 01:53:06;;;;;;;163.13;26.63;;;9.10;99.90;;;;;;5074098;28;20078;-68
2022/11/29 01:55:34;;;;;;;158.38;28.67;;;9.20;99.90;;;;;;5075211;28;20476;-68
2022/11/29 01:58:00;;;;;;;186.38;28.20;;;9.20;99.90;;;;;;5072954;28;20028;-68
2022/11/29 02:00:26;;;;;;;137.13;22.45;;;9.10;99.90;;;;;;5075329;28;20073;-67
2022/11/29 02:02:57;;;;;;;119.70;23.00;;;9.10;99.90;;;;;;5074890;28;20029;-67
2022/11/29 02:05:24;;;;;;;77.05;18.85;;;9.10;99.90;;;;;;5074952;28;20020;-68
2022/11/29 02:07:52;;;;;;;135.80;25.80;;;9.00;99.90;;;;;;5058927;28;20159;-69
2022/11/29 02:10:19;;;;;;;172.23;24.23;;;8.90;99.90;;;;;;5074487;28;20028;-69
2022/11/29 02:12:59;;;;;;;148.73;25.27;;;8.90;99.90;;;;;;5074417;28;20356;-70
2022/11/29 02:16:03;;;;;;;173.50;25.63;;;8.80;99.90;;;;;;5074616;28;20032;-69
2022/11/29 02:18:48;;;;;;;119.75;22.00;;;8.90;99.90;;;;;;5074311;28;20078;-68
2022/11/29 02:21:38;;;;;;;152.90;22.05;;;8.80;99.90;;;;;;5074410;28;20028;-70
2022/11/29 02:24:12;;;;;;;105.18;21.10;;;8.90;99.90;;;;;;5062682;28;20039;-67
2022/11/29 02:27:15;;;;;;;113.85;21.27;;;8.90;99.90;;;;;;5055045;28;20032;-69
2022/11/29 02:29:46;;;;;;;87.65;21.05;;;8.90;99.90;;;;;;5067646;28;20036;-68
2022/11/29 02:32:14;;;;;;;115.60;20.42;;;8.90;99.90;;;;;;5074558;28;20082;-67
2022/11/29 02:35:01;;;;;;;106.75;21.23;;;8.90;99.90;;;;;;5073825;28;20461;-69
2022/11/29 02:37:29;;;;;;;91.72;20.02;;;8.90;99.90;;;;;;5074122;28;20078;-67
2022/11/29 02:40:09;;;;;;;89.47;19.73;;;8.90;99.90;;;;;;5072714;28;20432;-69
2022/11/29 02:43:08;;;;;;;57.72;17.83;;;8.90;99.90;;;;;;5063267;28;20066;-68
2022/11/29 02:45:43;;;;;;;129.20;21.92;;;8.90;99.90;;;;;;5070834;28;20376;-66
2022/11/29 02:48:47;;;;;;;90.47;19.95;;;8.90;99.90;;;;;;5070884;28;20064;-68
2022/11/29 02:51:23;;;;;;;93.68;19.80;;;8.80;99.90;;;;;;5070620;28;20017;-68
2022/11/29 02:54:15;;;;;;;92.32;20.73;;;8.80;99.90;;;;;;5070706;28;20024;-67
2022/11/29 02:56:58;;;;;;;117.93;21.23;;;8.70;99.90;;;;;;5070902;28;20024;-68
2022/11/29 02:59:55;;;;;;;111.18;20.23;;;8.70;99.90;;;;;;5070329;28;20024;-66
2022/11/29 03:02:34;;;;;;;106.40;20.92;;;8.70;99.90;;;;;;5073595;28;20017;-67
2022/11/29 03:05:02;;;;;;;149.98;23.67;;;8.70;99.90;;;;;;5070279;28;20029;-66
2022/11/29 03:08:05;;;;;;;119.97;23.90;;;8.70;99.90;;;;;;5070187;28;20087;-66
2022/11/29 03:11:07;;;;;;;116.30;21.05;;;8.70;99.90;;;;;;5069040;28;20401;-68
2022/11/29 03:14:06;;;;;;;130.00;20.60;;;8.60;99.90;;;;;;5070463;28;20028;-68
2022/11/29 03:16:46;;;;;;;133.18;20.85;;;8.60;99.90;;;;;;5070438;28;20060;-67
2022/11/29 03:19:38;;;;;;;130.75;20.58;;;8.60;99.90;;;;;;5070362;28;20082;-67
2022/11/29 03:22:22;;;;;;;;;;;8.60;99.90;;;;;;5070725;28;20074;-67
2022/11/29 03:25:05;;;;;;;158.20;21.05;;;8.60;99.90;;;;;;5070350;28;20329;-66
2022/11/29 03:27:44;;;;;;;150.82;22.65;;;8.50;99.90;;;;;;5069858;28;20120;-66
2022/11/29 03:30:13;;;;;;;105.72;18.73;;;8.60;99.90;;;;;;5069893;28;20020;-67
2022/11/29 03:33:05;;;;;;;111.45;19.75;;;8.60;99.90;;;;;;5070054;28;20509;-66
2022/11/29 03:35:34;;;;;;;91.93;19.43;;;8.50;99.90;;;;;;5069775;28;20469;-66
2022/11/29 03:38:28;;;;;;;100.70;19.83;;;8.50;99.90;;;;;;5058610;28;20679;-67
2022/11/29 03:41:16;;;;;;;76.63;18.10;;;8.50;99.90;;;;;;5069778;28;20046;-67
2022/11/29 03:43:58;;;;;;;91.93;21.25;;;8.50;99.90;;;;;;5069286;28;20131;-68
2022/11/29 03:46:41;;;;;;;128.82;23.17;;;8.50;99.90;;;;;;5069634;28;20342;-67
2022/11/29 03:49:15;;;;;;;106.15;20.67;;;8.40;99.90;;;;;;5069590;28;20147;-67
2022/11/29 03:51:52;;;;;;;76.28;19.73;;;8.40;99.90;;;;;;5087079;28;20020;-67
2022/11/29 03:54:58;;;;;;;63.65;18.30;;;8.40;99.90;;;;;;5083848;28;20013;-67
2022/11/29 03:57:52;;;;;;;143.60;22.80;;;8.40;99.90;;;;;;5061962;28;20509;-67
2022/11/29 04:00:18;;;;;;;65.43;17.88;;;8.40;99.90;;;;;;5048644;28;20462;-67
2022/11/29 04:03:01;;;;;;;109.82;22.00;;;8.30;99.90;;;;;;5075692;28;20108;-67
2022/11/29 04:06:06;;;;;;;59.58;16.30;;;8.30;99.90;;;;;;5059811;28;20448;-67
2022/11/29 04:08:44;;;;;;;67.65;18.38;;;8.30;99.90;;;;;;5052594;28;20460;-70
2022/11/29 04:11:53;;;;;;;62.72;19.30;;;8.10;99.90;;;;;;5062349;28;20082;-67
2022/11/29 04:14:32;;;;;;;72.32;19.83;;;8.10;99.90;;;;;;5055744;28;20444;-67
2022/11/29 04:17:34;;;;;;;86.85;19.85;;;8.00;99.90;;;;;;5055435;28;20143;-67
2022/11/29 04:20:33;;;;;;;81.90;19.58;;;8.00;99.90;;;;;;5036187;28;20021;-67
2022/11/29 04:23:31;;;;;;;112.95;22.67;;;8.00;99.90;;;;;;5060100;28;20020;-67
2022/11/29 04:26:31;;;;;;;79.40;21.42;;;7.90;99.90;;;;;;5042746;28;20460;-68
2022/11/29 04:29:25;;;;;;;102.80;23.15;;;7.90;99.90;;;;;;5063997;28;20021;-69
2022/11/29 04:32:08;;;;;;;125.75;24.77;;;7.90;99.90;;;;;;5058960;28;20109;-67
2022/11/29 04:35:08;;;;;;;100.97;24.73;;;7.90;99.90;;;;;;5066601;28;20484;-67
2022/11/29 04:38:02;;;;;;;91.53;20.52;;;7.90;99.90;;;;;;5072088;28;20153;-69
2022/11/29 04:40:55;;;;;;;104.35;20.65;;;7.90;99.90;;;;;;5063292;28;20027;-68
2022/11/29 04:43:58;;;;;;;114.80;21.02;;;7.90;99.90;;;;;;5059612;28;20017;-68
2022/11/29 04:46:51;;;;;;;102.38;19.08;;;7.90;99.90;;;;;;5053445;28;20368;-69
2022/11/29 04:49:27;;;;;;;88.03;18.27;;;7.90;99.90;;;;;;5060408;28;20036;-68
2022/11/29 04:52:10;;;;;;;68.32;18.52;;;7.90;99.90;;;;;;5071734;28;20029;-68
2022/11/29 04:54:47;;;;;;;63.70;18.17;;;7.80;99.90;;;;;;5062524;28;20378;-68
2022/11/29 04:57:30;;;;;;;85.63;18.15;;;7.80;99.90;;;;;;5059961;28;20024;-68
2022/11/29 05:00:08;;;;;;;64.72;16.48;;;7.80;99.90;;;;;;5041960;28;20044;-68
2022/11/29 05:02:53;;;;;;;70.82;17.30;;;7.80;99.90;;;;;;5060719;28;20070;-69
2022/11/29 05:05:44;;;;;;;100.60;21.35;;;7.80;99.90;;;;;;5058948;28;20131;-69
2022/11/29 05:08:34;;;;;;;54.00;17.25;;;7.80;99.90;;;;;;5049622;28;20562;-69
2022/11/29 05:11:18;;;;;;;54.50;16.42;;;7.70;99.90;;;;;;5062482;28;20024;-68
2022/11/29 05:14:00;;;;;;;73.60;17.00;;;7.70;99.90;;;;;;5071055;28;20023;-68
2022/11/29 05:16:52;;;;;;;71.07;18.70;;;7.70;99.90;;;;;;5061975;28;20020;-68
2022/11/29 05:19:29;;;;;;;;;;;7.70;99.90;;;;;;5060169;28;20025;-70
2022/11/29 05:22:20;;;;;;;57.80;16.17;;;7.70;99.90;;;;;;5070748;28;19952;-69
2022/11/29 05:25:01;;;;;;;90.80;20.52;;;7.60;99.90;;;;;;5063538;28;20086;-67
2022/11/29 05:27:45;;;;;;;61.55;17.60;;;7.60;99.90;;;;;;5058446;28;20025;-67
2022/11/29 05:30:20;;;;;;;46.88;16.23;;;7.60;99.90;;;;;;5045592;28;20539;-68
2022/11/29 05:33:03;;;;;;;69.30;18.27;;;7.60;99.90;;;;;;5064085;28;20028;-69
2022/11/29 05:36:00;;;;;;;53.53;16.23;;;7.50;99.90;;;;;;5071102;28;20112;-69
2022/11/29 05:38:38;;;;;;;49.80;17.92;;;7.50;99.90;;;;;;5048585;28;20013;-68
2022/11/29 05:41:38;;;;;;;63.78;19.27;;;7.50;99.90;;;;;;5061040;28;20106;-69
2022/11/29 05:44:21;;;;;;;81.32;19.50;;;7.50;99.90;;;;;;5043268;28;20033;-69
2022/11/29 05:47:01;;;;;;;187.30;26.92;;;7.50;99.90;;;;;;5063095;28;20013;-69
2022/11/29 05:49:26;;;;;;;543.30;65.30;;;7.50;99.90;;;;;;5070054;28;20024;-67
2022/11/29 05:52:04;;;;;;;92.75;22.58;;;7.50;99.90;;;;;;5054364;28;20029;-70
2022/11/29 05:54:52;;;;;;;114.47;22.80;;;7.50;99.90;;;;;;5062195;28;20032;-67
2022/11/29 05:57:35;;;;;;;171.25;25.83;;;7.50;99.90;;;;;;5058823;28;20031;-68
2022/11/29 06:00:02;;;;;;;130.35;25.15;;;7.60;99.90;;;;;;5042529;28;20035;-67
2022/11/29 06:02:49;;;;;;;210.32;27.20;;;7.60;99.90;;;;;;5066099;28;20096;-68
2022/11/29 06:05:17;;;;;;;179.20;26.73;;;7.60;99.90;;;;;;5068002;28;20067;-70
2022/11/29 06:08:05;;;;;;;257.52;27.23;;;7.60;99.90;;;;;;5052048;28;20044;-70
2022/11/29 06:10:36;;;;;;;138.73;21.73;;;7.60;99.90;;;;;;5059553;28;20032;-68
2022/11/29 06:13:10;;;;;;;163.48;25.45;;;7.60;99.90;;;;;;5066368;28;20491;-70
2022/11/29 06:16:12;;;;;;;119.70;22.25;;;7.60;99.90;;;;;;5057064;28;20100;-68
2022/11/29 06:19:10;;;;;;;200.68;26.70;;;7.60;99.90;;;;;;5064527;28;20020;-68
2022/11/29 06:21:39;;;;;;;175.68;23.27;;;7.60;99.90;;;;;;5061735;28;20060;-67
2022/11/29 06:24:39;;;;;;;219.38;28.13;;;7.60;99.90;;;;;;5069235;28;20021;-69
2022/11/29 06:27:28;;;;;;;148.68;23.52;;;7.50;99.90;;;;;;5066653;28;20050;-69
2022/11/29 06:30:08;;;;;;;111.60;20.13;;;7.60;99.90;;;;;;5056588;28;20020;-69
2022/11/29 06:32:53;;;;;;;104.90;21.40;;;7.50;99.90;;;;;;5060446;28;20035;-69
2022/11/29 06:35:49;;;;;;;90.78;19.35;;;7.50;99.90;;;;;;5058818;28;20049;-69
2022/11/29 06:38:22;;;;;;;67.47;17.00;;;7.50;99.90;;;;;;5036826;28;20017;-69
2022/11/29 06:40:49;;;;;;;93.88;20.95;;;7.50;99.90;;;;;;5063367;28;20028;-67
2022/11/29 06:43:15;;;;;;;64.68;17.58;;;7.40;99.90;;;;;;5057753;28;20029;-68
2022/11/29 06:45:46;;;;;;;134.45;23.38;;;7.40;99.90;;;;;;5069900;28;20119;-67
2022/11/29 06:48:20;;;;;;;124.00;24.75;;;7.40;99.90;;;;;;5058798;28;20138;-68
2022/11/29 06:51:22;;;;;;;43.85;17.13;;;7.30;99.90;;;;;;5063115;28;20029;-69
2022/11/29 06:53:54;;;;;;;;;;;7.30;99.90;;;;;;5070119;28;20025;-68
2022/11/29 06:56:35;;;;;;;52.00;18.57;;;7.20;99.90;;;;;;5063990;28;19911;-69
2022/11/29 06:59:25;;;;;;;48.60;18.10;;;7.20;99.90;;;;;;5069880;28;20721;-68
2022/11/29 07:02:03;;;;;;;48.28;18.17;;;7.20;99.90;;;;;;5056589;28;20021;-69
2022/11/29 07:04:55;;;;;;;48.60;17.15;;;7.20;99.90;;;;;;5065221;28;20086;-69
2022/11/29 07:07:22;;;;;;;46.70;16.85;;;7.20;99.90;;;;;;5068310;28;20058;-68
2022/11/29 07:09:51;;;;;;;48.67;19.05;;;7.30;99.90;;;;;;5056576;28;20029;-69
2022/11/29 07:12:19;;;;;;;36.35;15.60;;;7.30;99.90;;;;;;5066563;28;20021;-69
2022/11/29 07:14:45;;;;;;;41.30;17.48;;;7.30;99.90;;;;;;5061863;28;20368;-67
2022/11/29 07:17:29;;;;;;;37.58;17.25;;;7.40;99.90;;;;;;5059266;28;20021;-69
2022/11/29 07:20:23;;;;;;;36.97;18.33;;;7.40;99.90;;;;;;5069339;28;20024;-68
2022/11/29 07:23:22;;;;;;;33.33;16.20;;;7.40;99.90;;;;;;5063636;28;20067;-68
2022/11/29 07:25:57;;;;;;;35.10;16.52;;;7.40;99.90;;;;;;5056240;28;20106;-68
2022/11/29 07:28:43;;;;;;;85.93;20.38;;;7.30;99.90;;;;;;5065566;28;20043;-68
2022/11/29 07:31:24;;;;;;;33.63;16.65;;;7.30;99.90;;;;;;5067588;28;20036;-68
2022/11/29 07:34:15;;;;;;;37.80;18.15;;;7.30;99.90;;;;;;5072529;28;20024;-68
2022/11/29 07:37:02;;;;;;;56.92;19.85;;;7.30;99.90;;;;;;5065472;28;20021;-67
2022/11/29 07:39:49;;;;;;;76.70;21.55;;;7.20;99.90;;;;;;5058001;28;20025;-68
2022/11/29 07:42:52;;;;;;;55.75;20.85;;;7.20;99.90;;;;;;5069728;28;20040;-68
2022/11/29 07:45:31;;;;;;;74.28;23.90;;;7.20;99.90;;;;;;5069783;28;20048;-68
2022/11/29 07:47:58;;;;;;;81.22;23.15;;;7.30;99.90;;;;;;5043019;28;20048;-67
2022/11/29 07:50:26;;;;;;;94.22;23.55;;;7.20;99.90;;;;;;5068530;28;20024;-68
2022/11/29 07:52:52;;;;;;;142.20;28.02;;;7.30;99.90;;;;;;5066513;28;20036;-67
2022/11/29 07:55:20;;;;;;;195.63;30.88;;;7.30;99.90;;;;;;5060724;28;20021;-68
2022/11/29 07:57:46;;;;;;;171.93;30.35;;;7.20;99.90;;;;;;5071922;28;20085;-68
2022/11/29 08:00:12;;;;;;;145.00;24.52;;;7.20;99.90;;;;;;5059499;28;20017;-69
2022/11/29 08:02:38;;;;;;;128.30;24.38;;;7.20;99.90;;;;;;5058557;28;20476;-69
2022/11/29 08:05:05;;;;;;;75.97;20.45;;;7.20;99.90;;;;;;5053428;28;20071;-67
2022/11/29 08:07:34;;;;;;;71.30;20.88;;;7.20;99.90;;;;;;5055220;28;20084;-69
2022/11/29 08:10:00;;;;;;;75.90;19.23;;;7.20;99.90;;;;;;5053541;28;20036;-70
2022/11/29 08:12:25;;;;;;;61.20;19.33;;;7.20;99.90;;;;;;5055014;28;20024;-69
2022/11/29 08:14:51;;;;;;;75.68;22.65;;;7.20;99.90;;;;;;5054677;28;20035;-68
2022/11/29 08:17:17;;;;;;;47.97;18.08;;;7.30;99.90;;;;;;5055293;28;20035;-69
2022/11/29 08:19:43;;;;;;;41.38;17.95;;;7.30;99.90;;;;;;5054742;28;20045;-69
2022/11/29 08:22:08;;;;;;;56.92;18.67;;;7.40;99.90;;;;;;5055025;28;20118;-67
2022/11/29 08:24:34;;;;;;;44.75;19.15;;;7.40;99.90;;;;;;5054609;28;20041;-70
2022/11/29 08:26:59;;;;;;;60.47;17.90;;;7.40;99.90;;;;;;5054377;28;20037;-70
2022/11/29 08:29:25;;;;;;;59.20;19.73;;;7.40;99.90;;;;;;5054519;28;20036;-68
2022/11/29 08:31:52;;;;;;;88.28;19.73;;;7.50;99.90;;;;;;5053366;28;20025;-70
2022/11/29 08:34:22;;;;;;;63.40;20.52;;;7.60;99.90;;;;;;5053208;28;20027;-68
2022/11/29 08:36:48;;;;;;;44.58;16.50;;;7.70;99.90;;;;;;5052910;28;20031;-67
2022/11/29 08:39:14;;;;;;;77.15;19.48;;;7.70;99.90;;;;;;5054025;28;20017;-67
2022/11/29 08:41:40;;;;;;;47.92;17.02;;;7.70;99.90;;;;;;5053060;28;20377;-69
2022/11/29 08:44:06;;;;;;;49.10;17.27;;;7.70;99.90;;;;;;5054119;28;20106;-68
2022/11/29 08:49:16;;;;;;;39.30;16.05;;;7.90;99.90;;;;;;5053818;28;20087;-70
2022/11/29 08:51:41;;;;;;;39.67;18.15;;;7.90;99.90;;;;;;5054947;28;20013;-69
2022/11/29 08:54:07;;;;;;;33.92;16.42;;;8.00;99.90;;;;;;5053854;28;20422;-68
2022/11/29 08:56:34;;;;;;;36.60;15.98;;;8.10;99.90;;;;;;5054037;28;20025;-70
2022/11/29 08:59:00;;;;;;;30.52;15.40;;;8.10;99.90;;;;;;5054033;28;20024;-68
2022/11/29 09:01:25;;;;;;;34.97;15.60;;;8.20;99.90;;;;;;5053394;28;20471;-70
2022/11/29 09:04:03;;;;;;;34.60;16.15;;;8.20;99.90;;;;;;5054010;28;20036;-68
2022/11/29 09:06:37;;;;;;;33.88;16.92;;;8.30;99.90;;;;;;5053896;28;20021;-70
2022/11/29 09:09:03;;;;;;;32.70;15.95;;;8.30;99.90;;;;;;5053801;28;20044;-69
2022/11/29 09:11:31;;;;;;;28.25;14.73;;;8.30;99.90;;;;;;5053650;28;20036;-69
2022/11/29 09:13:59;;;;;;;33.72;15.48;;;8.30;99.90;;;;;;5053603;28;20048;-68
2022/11/29 09:16:28;;;;;;;29.95;14.77;;;8.30;99.90;;;;;;5053144;28;20445;-68
2022/11/29 09:18:54;;;;;;;32.03;14.00;;;8.30;99.90;;;;;;5053426;28;20477;-68
2022/11/29 09:21:22;;;;;;;30.80;15.00;;;8.30;99.90;;;;;;5052839;28;20412;-70
2022/11/29 09:23:49;;;;;;;31.48;15.85;;;8.40;99.90;;;;;;5053430;28;20063;-68
2022/11/29 09:26:17;;;;;;;29.98;14.93;;;8.40;99.90;;;;;;5053081;28;20025;-69
2022/11/29 09:28:43;;;;;;;30.55;16.10;;;8.50;99.90;;;;;;5053770;28;20021;-68
2022/11/29 09:31:11;;;;;;;32.90;16.85;;;8.60;99.90;;;;;;5052977;28;20024;-68
2022/11/29 09:33:38;;;;;;;29.13;15.30;;;8.70;99.90;;;;;;5053121;28;20032;-69
2022/11/29 09:36:06;;;;;;;30.55;14.82;;;8.80;99.90;;;;;;5053212;28;20023;-71
2022/11/29 09:38:32;;;;;;;27.30;14.25;;;8.80;99.90;;;;;;5052238;28;20377;-70
2022/11/29 09:41:33;;;;;;;25.48;14.02;;;9.00;99.90;;;;;;5053690;28;20032;-70
2022/11/29 09:44:22;;;;;;;32.97;16.23;;;9.10;99.90;;;;;;5053780;28;20033;-71
2022/11/29 09:46:59;;;;;;;27.63;14.23;;;9.20;99.90;;;;;;5053170;28;20086;-69
2022/11/29 09:49:46;;;;;;;32.03;15.98;;;9.40;99.90;;;;;;5051999;28;20023;-68
2022/11/29 09:52:34;;;;;;;28.20;15.13;;;9.50;99.90;;;;;;5053086;28;20133;-68
2022/11/29 09:55:27;;;;;;;26.08;13.23;;;9.70;99.90;;;;;;5052271;28;20472;-68
2022/11/29 09:57:55;;;;;;;26.95;13.35;;;9.80;99.90;;;;;;5052864;28;20024;-70
2022/11/29 10:00:21;;;;;;;26.40;14.15;;;10.00;99.90;;;;;;5052915;28;20021;-68
2022/11/29 10:02:53;;;;;;;24.55;11.55;;;10.20;99.90;;;;;;5046403;28;20029;-67
2022/11/29 10:05:51;;;;;;;26.50;13.32;;;10.30;99.90;;;;;;5052330;28;20190;-68
2022/11/29 10:08:24;;;;;;;23.38;12.32;;;10.50;99.90;;;;;;5024112;28;20146;-69
2022/11/29 10:10:56;;;;;;;24.70;12.10;;;10.70;99.90;;;;;;5052234;28;20021;-67
2022/11/29 10:13:24;;;;;;;27.13;13.38;;;10.90;99.90;;;;;;5052738;28;20032;-70
2022/11/29 10:15:58;;;;;;;23.35;12.85;;;11.00;99.90;;;;;;5052532;28;20119;-70
2022/11/29 10:18:33;;;;;;;22.30;11.48;;;11.20;99.90;;;;;;5052524;28;20468;-69
2022/11/29 10:21:05;;;;;;;25.70;12.05;;;11.40;99.90;;;;;;5054141;28;20032;-69
2022/11/29 10:23:40;;;;;;;22.58;11.75;;;11.60;99.90;;;;;;5068401;28;20437;-68
2022/11/29 10:26:07;;;;;;;19.90;11.18;;;12.10;99.90;;;;;;5052463;28;20356;-70
2022/11/29 10:28:35;;;;;;;18.77;10.00;;;12.70;99.90;;;;;;5052594;28;20052;-69
2022/11/29 10:31:28;;;;;;;19.77;10.02;;;13.60;99.90;;;;;;5050804;28;20025;-67
2022/11/29 10:34:00;;;;;;;17.92;9.77;;;14.60;99.90;;;;;;5052296;28;20052;-69
2022/11/29 10:36:37;;;;;;;17.80;9.32;;;15.40;99.90;;;;;;5051937;28;20029;-70
2022/11/29 10:39:09;;;;;;;18.95;8.68;;;15.90;99.90;;;;;;5051491;28;20025;-70
2022/11/29 10:41:34;;;;;;;16.90;8.95;;;16.50;99.90;;;;;;5052138;28;20025;-69
2022/11/29 10:44:01;;;;;;;18.30;8.23;;;17.20;99.90;;;;;;5051312;28;20049;-68
2022/11/29 10:46:35;;;;;;;16.25;8.25;;;18.00;99.90;;;;;;5052335;28;20059;-70
2022/11/29 10:49:05;;;;;;;13.75;7.60;;;18.80;99.90;;;;;;5052023;28;20170;-71
2022/11/29 10:51:32;;;;;;;15.25;6.95;;;19.80;99.90;;;;;;5051770;28;20082;-67
2022/11/29 10:54:28;;;;;;;15.45;7.00;;;20.60;99.90;;;;;;5050499;28;20036;-66
2022/11/29 10:56:57;;;;;;;15.43;6.40;;;21.00;99.90;;;;;;5051938;28;20033;-68
2022/11/29 10:59:25;;;;;;;14.75;6.55;;;21.00;99.90;;;;;;5046198;28;20092;-69
2022/11/29 11:01:51;;;;;;;13.25;7.20;;;20.60;99.90;;;;;;5051099;28;20025;-70
2022/11/29 11:04:40;;;;;;;14.52;6.75;;;20.10;99.90;;;;;;5051347;28;20047;-69
2022/11/29 11:07:06;;;;;;;13.50;6.97;;;19.60;99.90;;;;;;5055240;28;20025;-70
2022/11/29 11:09:37;;;;;;;13.10;6.47;;;19.40;99.90;;;;;;5055558;28;20465;-70
2022/11/29 11:12:17;;;;;;;19.75;7.25;;;19.40;99.90;;;;;;5056294;28;20028;-69
2022/11/29 11:14:43;;;;;;;14.98;6.40;;;19.20;99.90;;;;;;5056034;28;20777;-69
2022/11/29 11:17:30;;;;;;;15.82;6.70;;;18.80;99.90;;;;;;5055537;28;20021;-68
2022/11/29 11:20:07;;;;;;;16.10;7.43;;;18.50;99.90;;;;;;5055551;28;20120;-70
2022/11/29 11:22:33;;;;;;;13.98;6.60;;;18.30;99.90;;;;;;5056579;28;20337;-70
2022/11/29 11:25:33;;;;;;;17.85;6.53;;;18.40;99.90;;;;;;5054911;28;20028;-71
2022/11/29 11:28:15;;;;;;;14.13;6.47;;;18.80;99.90;;;;;;5059814;28;20100;-69
2022/11/29 11:30:53;;;;;;;12.57;5.43;;;19.30;99.90;;;;;;5056679;28;20116;-71
2022/11/29 11:33:25;;;;;;;14.05;6.47;;;19.50;99.90;;;;;;5075570;28;20036;-69
2022/11/29 11:36:06;;;;;;;13.23;6.13;;;19.70;99.90;;;;;;5075757;28;20025;-70
2022/11/29 11:38:34;;;;;;;13.52;6.97;;;19.90;99.90;;;;;;5075775;28;20027;-70
2022/11/29 11:42:35;;;;;;;13.02;5.97;;;19.80;99.90;;;;;;5059073;28;20029;-65
2022/11/29 11:44:25;;;;;;;11.68;6.22;;;19.70;99.90;;;;;;5051852;28;20543;-68
2022/11/29 11:46:51;;;;;;;14.98;7.13;;;19.60;99.90;;;;;;5038088;28;20513;-70
2022/11/29 11:49:25;;;;;;;14.77;6.72;;;19.40;99.90;;;;;;5051299;28;20487;-70
2022/11/29 11:51:50;;;;;;;16.08;6.90;;;19.20;99.90;;;;;;5055354;28;20033;-71
2022/11/29 11:54:16;;;;;;;13.10;7.25;;;19.10;99.90;;;;;;5055305;28;20110;-68
2022/11/29 11:56:41;;;;;;;15.93;6.85;;;18.90;99.90;;;;;;5058363;28;20107;-71
2022/11/29 11:59:18;;;;;;;13.73;5.28;;;18.70;99.90;;;;;;5074821;28;20021;-69
2022/11/29 12:01:53;;;;;;;17.25;6.57;;;18.70;99.90;;;;;;5059540;28;20442;-71
2022/11/29 12:04:28;;;;;;;14.48;5.68;;;19.00;99.90;;;;;;5062116;28;20052;-68
2022/11/29 12:07:04;;;;;;;14.43;4.78;;;19.10;99.90;;;;;;5055369;28;20033;-69
2022/11/29 12:09:47;;;;;;;12.70;4.32;;;19.50;99.90;;;;;;5049482;28;20021;-68
2022/11/29 12:12:25;;;;;;;13.20;4.28;;;19.80;99.90;;;;;;5054580;28;20043;-70
2022/11/29 12:15:02;;;;;;;13.55;3.55;;;19.80;99.90;;;;;;5054528;28;20044;-69
2022/11/29 12:17:55;;;;;;;11.05;3.63;;;19.70;99.90;;;;;;5054551;28;20024;-68
2022/11/29 12:20:38;;;;;;;11.25;3.30;;;19.40;99.90;;;;;;5044908;28;20021;-68
2022/11/29 12:23:13;;;;;;;12.80;2.95;;;19.10;99.90;;;;;;5051021;28;20032;-70
2022/11/29 12:26:10;;;;;;;8.75;2.60;;;18.80;99.90;;;;;;5044071;28;20117;-70
2022/11/29 12:28:40;;;;;;;8.20;3.20;;;18.50;99.90;;;;;;5047341;28;20089;-69
2022/11/29 12:31:15;;;;;;;11.23;3.47;;;18.30;99.90;;;;;;5058201;28;20499;-69
2022/11/29 12:33:55;;;;;;;14.52;4.05;;;18.40;99.90;;;;;;5051417;28;20070;-68
2022/11/29 12:36:43;;;;;;;11.25;3.50;;;18.50;99.90;;;;;;5049563;28;20021;-69
2022/11/29 12:39:37;;;;;;;10.90;3.15;;;18.60;99.90;;;;;;5053104;28;20028;-69
2022/11/29 12:42:17;;;;;;;16.38;3.80;;;18.60;99.90;;;;;;5051564;28;20032;-69
2022/11/29 12:44:57;;;;;;;11.65;3.75;;;18.50;99.90;;;;;;5054474;28;20045;-68
2022/11/29 12:47:41;;;;;;;11.63;3.85;;;18.20;99.90;;;;;;5054745;28;20073;-69
2022/11/29 12:50:36;;;;;;;10.60;3.25;;;17.90;99.90;;;;;;5054458;28;20039;-68
2022/11/29 12:53:14;;;;;;;11.80;3.65;;;17.70;99.90;;;;;;5053663;28;20104;-68
2022/11/29 12:56:01;;;;;;;12.52;3.65;;;17.40;99.90;;;;;;5051904;28;20053;-68
2022/11/29 12:58:41;;;;;;;11.55;3.50;;;16.90;99.90;;;;;;5041900;28;20055;-68
2022/11/29 13:01:19;;;;;;;14.25;3.40;;;16.60;99.90;;;;;;5049515;28;20025;-67
2022/11/29 13:04:22;;;;;;;10.32;2.90;;;16.30;99.90;;;;;;5059959;28;20032;-68
2022/11/29 13:07:09;;;;;;;15.00;3.55;;;16.00;99.90;;;;;;5060586;28;20028;-67
2022/11/29 13:09:44;;;;;;;13.82;3.67;;;15.60;99.90;;;;;;5053876;28;21764;-67
2022/11/29 13:12:25;;;;;;;9.32;2.80;;;15.30;99.90;;;;;;5052333;28;20388;-68
2022/11/29 13:14:59;;;;;;;14.10;2.60;;;15.10;99.90;;;;;;5056234;28;20035;-67
2022/11/29 13:17:57;;;;;;;13.90;3.00;;;14.90;99.90;;;;;;5055679;28;20035;-67
2022/11/29 13:20:39;;;;;;;14.18;3.15;;;14.70;99.90;;;;;;5052966;28;20151;-67
2022/11/29 13:23:11;;;;;;;13.32;3.85;;;14.50;99.90;;;;;;5053175;28;20037;-68
2022/11/29 13:25:42;;;;;;;12.95;2.60;;;14.20;99.90;;;;;;5050542;28;20051;-67